createdAt,value
2022-10-22T00:01:03.022Z,66.58
2022-10-22T00:03:29.585Z,66.09
2022-10-22T00:05:56.159Z,66.08
2022-10-22T00:08:22.720Z,66.01
2022-10-22T00:10:49.197Z,65.21
2022-10-22T00:13:16.017Z,65.95
2022-10-22T00:15:42.625Z,66.15
2022-10-22T00:18:09.164Z,66.27
2022-10-22T00:20:35.660Z,65.81
2022-10-22T00:23:02.093Z,64.57
2022-10-22T00:25:28.557Z,64.25
2022-10-22T00:27:55.049Z,64.74
2022-10-22T00:30:21.560Z,66.14
2022-10-22T00:32:48.033Z,64.86
2022-10-22T00:35:14.572Z,64.03
2022-10-22T00:37:41.042Z,65.44
2022-10-22T00:40:08.375Z,66.66
2022-10-22T00:42:35.085Z,66.77
2022-10-22T00:45:10.824Z,66.39
2022-10-22T00:47:51.346Z,65.35
2022-10-22T00:50:22.319Z,66.33
2022-10-22T00:52:49.603Z,64.96
2022-10-22T00:55:16.228Z,65.70
2022-10-22T00:57:42.938Z,64.50
2022-10-22T01:00:10.237Z,64.96
2022-10-22T01:02:36.836Z,66.56
2022-10-22T01:05:04.416Z,64.62
2022-10-22T01:07:31.201Z,64.49
2022-10-22T01:10:03.837Z,63.62
2022-10-22T01:12:42.474Z,63.13
2022-10-22T01:15:15.264Z,62.54
2022-10-22T01:17:50.864Z,62.12
2022-10-22T01:20:31.109Z,63.01
2022-10-22T01:23:19.032Z,63.04
2022-10-22T01:25:54.334Z,62.52
2022-10-22T01:28:27.807Z,62.41
2022-10-22T01:30:55.836Z,62.44
2022-10-22T01:33:23.149Z,63.57
2022-10-22T01:35:50.402Z,65.34
2022-10-22T01:38:19.645Z,65.35
2022-10-22T01:40:47.446Z,65.58
2022-10-22T01:43:14.343Z,65.78
2022-10-22T01:46:01.801Z,64.38
2022-10-22T01:48:53.202Z,64.17
2022-10-22T01:51:34.126Z,65.21
2022-10-22T01:54:26.984Z,66.16
2022-10-22T01:57:21.534Z,65.79
2022-10-22T02:00:07.408Z,66.47
2022-10-22T02:02:43.156Z,64.90
2022-10-22T02:05:09.655Z,64.30
2022-10-22T02:07:42.071Z,64.51
2022-10-22T02:10:09.558Z,64.87
2022-10-22T02:12:37.621Z,64.38
2022-10-22T02:15:05.038Z,63.52
2022-10-22T02:17:33.326Z,63.14
2022-10-22T02:20:04.266Z,63.07
2022-10-22T02:22:30.808Z,62.48
2022-10-22T02:24:57.328Z,62.15
2022-10-22T02:27:26.987Z,62.24
2022-10-22T02:30:07.561Z,62.21
2022-10-22T02:32:57.980Z,62.28
2022-10-22T02:35:26.258Z,62.80
2022-10-22T02:37:54.543Z,62.37
2022-10-22T02:40:21.319Z,62.24
2022-10-22T02:42:49.714Z,62.19
2022-10-22T02:45:17.663Z,62.01
2022-10-22T02:47:44.287Z,61.92
2022-10-22T02:50:10.733Z,62.80
2022-10-22T02:52:37.863Z,62.41
2022-10-22T02:55:05.581Z,62.89
2022-10-22T02:57:32.715Z,62.08
2022-10-22T02:59:59.306Z,61.75
2022-10-22T03:02:25.823Z,61.71
2022-10-22T03:04:52.237Z,62.36
2022-10-22T03:07:18.715Z,61.61
2022-10-22T03:09:45.262Z,61.89
2022-10-22T03:12:11.691Z,61.84
2022-10-22T03:14:38.134Z,62.51
2022-10-22T03:17:04.887Z,64.05
2022-10-22T03:19:31.465Z,62.93
2022-10-22T03:22:11.942Z,64.36
2022-10-22T03:24:41.475Z,64.13
2022-10-22T03:27:08.831Z,63.64
2022-10-22T03:29:37.689Z,64.01
2022-10-22T03:32:04.340Z,63.41
2022-10-22T03:34:30.844Z,63.06
2022-10-22T03:36:59.119Z,63.39
2022-10-22T03:39:26.100Z,63.42
2022-10-22T03:41:53.015Z,63.53
2022-10-22T03:44:20.446Z,62.96
2022-10-22T03:46:46.874Z,63.19
2022-10-22T03:49:13.324Z,64.18
2022-10-22T03:51:39.788Z,64.32
2022-10-22T03:54:06.449Z,64.96
2022-10-22T03:56:33.151Z,64.49
2022-10-22T03:59:01.003Z,65.81
2022-10-22T04:01:29.457Z,65.41
2022-10-22T04:03:56.433Z,65.52
2022-10-22T04:06:23.051Z,64.98
2022-10-22T04:08:49.709Z,65.32
2022-10-22T04:11:16.749Z,64.86
2022-10-22T04:13:43.669Z,65.50
2022-10-22T04:16:16.241Z,64.81
2022-10-22T04:18:43.923Z,65.11
2022-10-22T04:21:11.926Z,65.35
2022-10-22T04:23:38.385Z,65.23
2022-10-22T04:26:07.119Z,65.35
2022-10-22T04:28:35.053Z,65.67
2022-10-22T04:31:07.730Z,65.88
2022-10-22T04:33:34.290Z,65.85
2022-10-22T04:36:00.803Z,65.04
2022-10-22T04:38:27.252Z,65.25
2022-10-22T04:40:53.774Z,66.41
2022-10-22T04:43:20.195Z,65.00
2022-10-22T04:45:46.688Z,65.05
2022-10-22T04:48:13.218Z,65.11
2022-10-22T04:50:39.635Z,64.58
2022-10-22T04:53:06.084Z,64.62
2022-10-22T04:55:32.696Z,65.55
2022-10-22T04:57:59.154Z,64.92
2022-10-22T05:00:25.826Z,64.18
2022-10-22T05:02:59.994Z,64.92
2022-10-22T05:05:26.585Z,66.40
2022-10-22T05:07:53.078Z,65.87
2022-10-22T05:10:19.495Z,65.52
2022-10-22T05:12:45.995Z,65.30
2022-10-22T05:15:12.442Z,64.77
2022-10-22T05:17:39.388Z,68.62
2022-10-22T05:20:06.564Z,68.01
2022-10-22T05:22:34.752Z,68.00
2022-10-22T05:25:01.224Z,68.09
2022-10-22T05:27:27.719Z,69.32
2022-10-22T05:29:54.144Z,72.22
2022-10-22T05:32:20.712Z,69.73
2022-10-22T05:34:47.195Z,70.39
2022-10-22T05:37:13.650Z,72.37
2022-10-22T05:39:41.631Z,70.34
2022-10-22T05:42:08.126Z,68.96
2022-10-22T05:44:37.281Z,69.22
2022-10-22T05:47:03.762Z,68.71
2022-10-22T05:49:30.206Z,68.72
2022-10-22T05:51:56.613Z,67.96
2022-10-22T05:54:23.110Z,67.01
2022-10-22T05:56:49.589Z,68.69
2022-10-22T05:59:16.018Z,71.80
2022-10-22T06:01:42.551Z,70.78
2022-10-22T06:04:11.999Z,71.35
2022-10-22T06:06:43.400Z,69.88
2022-10-22T06:09:12.933Z,69.30
2022-10-22T06:11:39.497Z,69.68
2022-10-22T06:14:06.001Z,70.49
2022-10-22T06:16:32.618Z,70.88
2022-10-22T06:19:01.916Z,71.07
2022-10-22T06:21:28.891Z,71.14
2022-10-22T06:23:56.650Z,71.77
2022-10-22T06:26:23.582Z,70.44
2022-10-22T06:28:50.027Z,71.04
2022-10-22T06:31:16.487Z,71.28
2022-10-22T06:33:43.368Z,73.29
2022-10-22T06:36:18.423Z,71.62
2022-10-22T06:38:44.909Z,69.93
2022-10-22T06:41:14.393Z,74.63
2022-10-22T06:43:41.991Z,72.56
2022-10-22T06:46:09.945Z,73.55
2022-10-22T06:48:37.955Z,72.20
2022-10-22T06:51:09.458Z,70.62
2022-10-22T06:53:36.862Z,70.37
2022-10-22T06:56:07.887Z,70.91
2022-10-22T06:58:34.534Z,72.23
2022-10-22T07:01:05.939Z,72.83
2022-10-22T07:03:32.427Z,73.75
2022-10-22T07:06:00.910Z,72.09
2022-10-22T07:08:27.454Z,73.65
2022-10-22T07:10:54.084Z,72.11
2022-10-22T07:13:20.698Z,73.54
2022-10-22T07:15:53.633Z,72.76
2022-10-22T07:18:20.239Z,71.08
2022-10-22T07:20:47.921Z,71.10
2022-10-22T07:23:14.889Z,72.78
2022-10-22T07:25:41.633Z,69.93
2022-10-22T07:28:08.526Z,69.61
2022-10-22T07:30:37.169Z,67.34
2022-10-22T07:33:04.086Z,68.76
2022-10-22T07:35:31.165Z,67.46
2022-10-22T07:37:57.794Z,67.81
2022-10-22T07:40:24.323Z,67.71
2022-10-22T07:42:50.805Z,65.36
2022-10-22T07:45:17.433Z,64.39
2022-10-22T07:47:43.935Z,62.56
2022-10-22T07:50:10.654Z,60.59
2022-10-22T07:52:37.066Z,60.01
2022-10-22T07:55:03.893Z,59.12
2022-10-22T07:57:30.323Z,59.42
2022-10-22T07:59:58.095Z,61.76
2022-10-22T08:02:25.214Z,60.96
2022-10-22T08:04:51.984Z,60.43
2022-10-22T08:07:19.065Z,61.01
2022-10-22T08:09:45.692Z,62.47
2022-10-22T08:12:12.161Z,63.70
2022-10-22T08:14:38.803Z,63.36
2022-10-22T08:17:05.305Z,61.82
2022-10-22T08:19:32.493Z,62.10
2022-10-22T08:21:59.803Z,59.40
2022-10-22T08:24:27.042Z,58.72
2022-10-22T08:26:56.864Z,57.94
2022-10-22T08:29:24.349Z,57.00
2022-10-22T08:31:51.304Z,55.46
2022-10-22T08:34:17.816Z,53.40
2022-10-22T08:36:44.300Z,54.59
2022-10-22T08:39:10.819Z,54.41
2022-10-22T08:41:58.428Z,51.93
2022-10-22T08:44:30.928Z,51.30
2022-10-22T08:47:18.598Z,52.99
2022-10-22T08:49:47.916Z,51.19
2022-10-22T08:52:17.512Z,50.38
2022-10-22T08:54:58.677Z,51.54
2022-10-22T08:57:52.136Z,50.50
2022-10-22T09:00:26.027Z,49.41
2022-10-22T09:03:01.316Z,46.51
2022-10-22T09:06:03.273Z,50.00
2022-10-22T09:08:30.202Z,49.05
2022-10-22T09:11:02.779Z,48.03
2022-10-22T09:13:29.506Z,49.36
2022-10-22T09:16:01.938Z,49.91
2022-10-22T09:18:39.561Z,52.33
2022-10-22T09:21:18.054Z,49.96
2022-10-22T09:24:03.448Z,52.25
2022-10-22T09:26:32.472Z,51.46
2022-10-22T09:29:00.336Z,51.31
2022-10-22T09:31:28.276Z,52.21
2022-10-22T09:33:54.763Z,52.96
2022-10-22T09:36:22.814Z,56.09
2022-10-22T09:38:52.173Z,54.44
2022-10-22T09:41:20.438Z,54.74
2022-10-22T09:43:47.892Z,55.76
2022-10-22T09:46:20.238Z,55.66
2022-10-22T09:49:23.842Z,56.79
2022-10-22T09:52:00.510Z,55.24
2022-10-22T09:54:33.033Z,57.47
2022-10-22T09:57:16.609Z,55.65
2022-10-22T09:59:44.553Z,58.10
2022-10-22T10:02:20.246Z,59.64
2022-10-22T10:04:55.876Z,58.47
2022-10-22T10:07:28.754Z,58.58
2022-10-22T10:09:55.256Z,57.87
2022-10-22T10:12:37.017Z,57.59
2022-10-22T10:15:28.218Z,55.38
2022-10-22T10:17:57.686Z,56.15
2022-10-22T10:20:29.924Z,52.85
2022-10-22T10:23:08.445Z,53.88
2022-10-22T10:25:45.388Z,51.82
2022-10-22T10:28:18.002Z,47.12
2022-10-22T10:30:59.865Z,41.84
2022-10-22T10:33:32.365Z,41.60
2022-10-22T10:36:09.728Z,45.62
2022-10-22T10:38:51.765Z,48.80
2022-10-22T10:41:31.468Z,50.76
2022-10-22T10:44:10.133Z,53.64
2022-10-22T10:47:11.314Z,54.87
2022-10-22T10:49:38.008Z,56.11
2022-10-22T10:52:21.292Z,56.52
2022-10-22T10:55:16.346Z,57.28
2022-10-22T10:57:54.892Z,55.90
2022-10-22T11:00:22.474Z,55.55
2022-10-22T11:03:04.002Z,56.84
2022-10-22T11:05:44.202Z,57.72
2022-10-22T11:08:27.594Z,56.87
2022-10-22T11:14:02.163Z,56.82
2022-10-22T11:16:54.146Z,58.55
2022-10-22T11:19:22.781Z,57.54
2022-10-22T11:22:06.763Z,56.26
2022-10-22T11:24:43.082Z,55.51
2022-10-22T11:27:46.750Z,56.03
2022-10-22T11:30:18.875Z,55.80
2022-10-22T11:33:00.737Z,55.81
2022-10-22T11:35:31.998Z,54.68
2022-10-22T11:37:59.057Z,55.40
2022-10-22T11:40:28.629Z,54.62
2022-10-22T11:42:58.119Z,54.80
2022-10-22T11:45:24.533Z,54.44
2022-10-22T11:48:07.066Z,54.32
2022-10-22T11:51:27.412Z,52.43
2022-10-22T11:53:58.059Z,50.73
2022-10-22T11:56:26.270Z,50.91
2022-10-22T11:58:54.999Z,50.88
2022-10-22T12:01:23.442Z,51.68
2022-10-22T12:04:21.968Z,48.86
2022-10-22T12:07:00.268Z,49.08
2022-10-22T12:09:30.188Z,48.31
2022-10-22T12:12:04.197Z,49.45
2022-10-22T12:14:52.479Z,47.06
2022-10-22T12:17:20.727Z,48.13
2022-10-22T12:19:50.068Z,49.89
2022-10-22T12:22:23.207Z,48.66
2022-10-22T12:24:54.523Z,50.82
2022-10-22T12:27:22.850Z,49.76
2022-10-22T12:29:54.398Z,50.33
2022-10-22T12:32:20.844Z,50.10
2022-10-22T12:37:21.099Z,47.67
2022-10-22T12:39:47.647Z,46.83
2022-10-22T12:42:16.513Z,46.59
2022-10-22T12:44:46.122Z,45.71
2022-10-22T12:47:16.790Z,45.73
2022-10-22T12:49:46.997Z,47.15
2022-10-22T12:52:17.634Z,47.47
2022-10-22T12:54:45.619Z,46.74
2022-10-22T12:57:17.691Z,47.31
2022-10-22T12:59:49.801Z,46.95
2022-10-22T13:02:25.035Z,46.39
2022-10-22T13:05:27.943Z,45.96
2022-10-22T13:08:03.317Z,45.39
2022-10-22T13:10:38.987Z,45.46
2022-10-22T13:13:06.951Z,47.90
2022-10-22T13:15:36.374Z,47.75
2022-10-22T13:18:03.430Z,46.06
2022-10-22T13:20:29.979Z,48.98
2022-10-22T13:23:01.154Z,49.84
2022-10-22T13:25:31.569Z,49.13
2022-10-22T13:28:04.018Z,49.91
2022-10-22T13:30:33.884Z,49.27
2022-10-22T13:33:07.271Z,50.20
2022-10-22T13:35:37.722Z,49.21
2022-10-22T13:38:18.419Z,50.97
2022-10-22T13:40:45.094Z,49.23
2022-10-22T13:43:11.534Z,47.16
2022-10-22T13:45:38.096Z,47.59
2022-10-22T13:48:04.974Z,47.31
2022-10-22T13:50:31.623Z,49.02
2022-10-22T13:52:58.576Z,49.50
2022-10-22T13:55:27.332Z,49.15
2022-10-22T14:00:51.887Z,50.85
2022-10-22T14:03:22.023Z,50.29
2022-10-22T14:05:49.018Z,51.33
2022-10-22T14:08:17.903Z,50.08
2022-10-22T14:10:44.700Z,50.56
2022-10-22T14:13:12.240Z,50.81
2022-10-22T14:15:38.728Z,51.73
2022-10-22T14:18:06.802Z,51.24
2022-10-22T14:20:35.710Z,51.70
2022-10-22T14:23:13.951Z,51.00
2022-10-22T14:25:40.969Z,51.37
2022-10-22T14:28:09.436Z,50.03
2022-10-22T14:30:36.039Z,51.11
2022-10-22T14:33:02.543Z,52.01
2022-10-22T14:35:29.018Z,51.90
2022-10-22T14:37:58.437Z,51.22
2022-10-22T14:40:25.454Z,51.64
2022-10-22T14:42:52.601Z,50.61
2022-10-22T14:45:24.851Z,50.88
2022-10-22T14:47:52.067Z,50.03
2022-10-22T14:50:19.120Z,49.50
2022-10-22T14:52:45.699Z,49.60
2022-10-22T14:55:13.936Z,50.26
2022-10-22T14:57:41.012Z,52.71
2022-10-22T15:00:10.726Z,51.01
2022-10-22T15:02:37.179Z,50.94
2022-10-22T15:05:04.507Z,49.60
2022-10-22T15:07:30.947Z,48.75
2022-10-22T15:09:57.416Z,49.84
2022-10-22T15:12:23.870Z,51.77
2022-10-22T15:14:50.717Z,49.84
2022-10-22T15:17:18.202Z,49.76
2022-10-22T15:19:44.790Z,49.18
2022-10-22T15:22:12.160Z,50.64
2022-10-22T15:24:39.370Z,50.90
2022-10-22T15:27:05.897Z,50.15
2022-10-22T15:29:32.805Z,51.06
2022-10-22T15:32:00.451Z,50.10
2022-10-22T15:34:32.676Z,50.32
2022-10-22T15:37:00.848Z,50.86
2022-10-22T15:39:27.595Z,53.02
2022-10-22T15:41:54.682Z,50.93
2022-10-22T15:44:24.088Z,52.28
2022-10-22T15:46:51.513Z,51.98
2022-10-22T15:49:18.860Z,52.34
2022-10-22T15:51:45.380Z,53.07
2022-10-22T15:54:17.421Z,52.62
2022-10-22T15:56:44.402Z,52.99
2022-10-22T15:59:15.326Z,53.39
2022-10-22T16:01:42.007Z,52.57
2022-10-22T16:04:08.779Z,52.09
2022-10-22T16:06:41.505Z,51.75
2022-10-22T16:09:13.334Z,51.64
2022-10-22T16:11:40.443Z,51.70
2022-10-22T16:14:07.474Z,51.58
2022-10-22T16:16:36.018Z,52.22
2022-10-22T16:19:02.794Z,51.89
2022-10-22T16:21:29.359Z,51.31
2022-10-22T16:23:55.805Z,51.37
2022-10-22T16:26:22.269Z,51.07
2022-10-22T16:28:48.985Z,51.89
2022-10-22T16:31:18.055Z,52.31
2022-10-22T16:33:47.952Z,53.68
2022-10-22T16:36:18.723Z,54.30
2022-10-22T16:38:45.999Z,54.55
2022-10-22T16:41:14.119Z,53.58
2022-10-22T16:43:42.363Z,53.42
2022-10-22T16:46:09.166Z,53.83
2022-10-22T16:48:37.787Z,53.45
2022-10-22T16:51:09.563Z,54.07
2022-10-22T16:53:36.528Z,54.26
2022-10-22T16:56:03.611Z,54.84
2022-10-22T16:58:30.234Z,54.43
2022-10-22T17:00:56.918Z,55.76
2022-10-22T17:03:25.975Z,55.68
2022-10-22T17:05:54.197Z,56.03
2022-10-22T17:08:20.665Z,55.56
2022-10-22T17:10:47.181Z,55.33
2022-10-22T17:13:13.643Z,55.77
2022-10-22T17:15:40.645Z,57.44
2022-10-22T17:18:07.151Z,57.62
2022-10-22T17:20:33.594Z,57.86
2022-10-22T17:23:00.129Z,57.63
2022-10-22T17:25:36.722Z,58.24
2022-10-22T17:28:03.233Z,57.74
2022-10-22T17:30:30.332Z,57.49
2022-10-22T17:32:56.856Z,57.45
2022-10-22T17:35:23.368Z,58.07
2022-10-22T17:37:49.983Z,58.39
2022-10-22T17:40:16.631Z,58.04
2022-10-22T17:42:45.358Z,58.26
2022-10-22T17:45:11.886Z,57.81
2022-10-22T17:47:38.389Z,59.24
2022-10-22T17:50:05.234Z,58.92
2022-10-22T17:52:32.110Z,58.62
2022-10-22T17:54:58.669Z,58.90
2022-10-22T17:57:25.307Z,58.75
2022-10-22T17:59:51.762Z,59.08
2022-10-22T18:02:18.474Z,58.81
2022-10-22T18:04:45.292Z,59.64
2022-10-22T18:07:11.951Z,59.36
2022-10-22T18:09:39.148Z,59.07
2022-10-22T18:12:06.163Z,58.39
2022-10-22T18:14:32.592Z,59.17
2022-10-22T18:17:01.842Z,58.46
2022-10-22T18:19:28.370Z,58.25
2022-10-22T18:21:55.156Z,59.09
2022-10-22T18:24:21.923Z,58.76
2022-10-22T18:26:48.420Z,58.88
2022-10-22T18:29:17.144Z,58.30
2022-10-22T18:31:44.217Z,58.19
2022-10-22T18:34:10.974Z,59.40
2022-10-22T18:36:37.643Z,59.07
2022-10-22T18:39:04.708Z,59.53
2022-10-22T18:41:32.409Z,60.17
2022-10-22T18:44:05.035Z,59.17
2022-10-22T18:46:38.315Z,60.29
2022-10-22T18:49:06.893Z,60.27
2022-10-22T18:51:34.664Z,59.48
2022-10-22T18:54:05.988Z,59.02
2022-10-22T18:56:40.045Z,60.20
2022-10-22T18:59:06.636Z,60.68
2022-10-22T19:01:35.405Z,59.30
2022-10-22T19:04:02.042Z,60.06
2022-10-22T19:06:34.554Z,59.70
2022-10-22T19:09:04.139Z,59.04
2022-10-22T19:11:31.235Z,59.11
2022-10-22T19:13:58.274Z,58.87
2022-10-22T19:16:24.741Z,59.06
2022-10-22T19:19:00.555Z,59.74
2022-10-22T19:21:27.620Z,59.50
2022-10-22T19:23:58.309Z,59.11
2022-10-22T19:26:26.573Z,59.74
2022-10-22T19:28:54.476Z,58.95
2022-10-22T19:31:23.873Z,58.92
2022-10-22T19:33:51.638Z,59.29
2022-10-22T19:36:19.500Z,59.32
2022-10-22T19:38:47.980Z,58.51
2022-10-22T19:41:16.786Z,59.56
2022-10-22T19:43:44.631Z,59.20
2022-10-22T19:46:11.829Z,60.39
2022-10-22T19:48:38.647Z,59.22
2022-10-22T19:51:09.828Z,59.96
2022-10-22T19:53:38.372Z,60.02
2022-10-22T19:56:07.004Z,59.04
2022-10-22T19:58:33.689Z,59.61
2022-10-22T20:01:14.317Z,59.10
2022-10-22T20:03:41.225Z,59.16
2022-10-22T20:06:12.382Z,58.09
2022-10-22T20:08:38.922Z,57.72
2022-10-22T20:11:13.495Z,57.70
2022-10-22T20:16:14.868Z,57.77
2022-10-22T20:18:41.378Z,57.32
2022-10-22T20:21:08.957Z,57.34
2022-10-22T20:23:35.529Z,57.26
2022-10-22T20:26:02.002Z,57.26
2022-10-22T20:28:28.468Z,57.19
2022-10-22T20:30:55.127Z,57.16
2022-10-22T20:33:21.591Z,58.01
2022-10-22T20:36:01.286Z,57.40
2022-10-22T20:38:28.379Z,57.00
2022-10-22T20:41:09.016Z,58.17
2022-10-22T20:43:35.507Z,58.18
2022-10-22T20:46:02.095Z,58.41
2022-10-22T20:48:31.270Z,57.54
2022-10-22T20:50:59.047Z,57.31
2022-10-22T20:53:25.795Z,56.91
2022-10-22T20:55:55.030Z,56.99
2022-10-22T20:58:24.528Z,56.78
2022-10-22T21:00:56.991Z,56.93
2022-10-22T21:03:23.910Z,57.01
2022-10-22T21:05:50.604Z,56.86
2022-10-22T21:08:17.613Z,57.04
2022-10-22T21:10:49.043Z,57.38
2022-10-22T21:13:16.901Z,57.14
2022-10-22T21:15:43.431Z,57.31
2022-10-22T21:18:09.966Z,56.97
2022-10-22T21:20:38.821Z,56.97
2022-10-22T21:23:05.350Z,56.80
2022-10-22T21:25:31.902Z,56.92
2022-10-22T21:27:58.370Z,57.71
2022-10-22T21:30:24.862Z,57.10
2022-10-22T21:32:51.720Z,57.38
2022-10-22T21:35:18.247Z,57.84
2022-10-22T21:37:44.927Z,58.31
2022-10-22T21:40:11.919Z,59.06
2022-10-22T21:42:38.386Z,57.79
2022-10-22T21:45:10.490Z,58.66
2022-10-22T21:47:39.956Z,58.90
2022-10-22T21:50:07.029Z,58.77
2022-10-22T21:52:33.488Z,58.74
2022-10-22T21:54:59.933Z,58.85
2022-10-22T21:57:26.687Z,58.38
2022-10-22T21:59:53.122Z,58.52
2022-10-22T22:04:54.705Z,57.96
2022-10-22T22:07:22.189Z,58.06
2022-10-22T22:09:51.974Z,58.18
2022-10-22T22:12:18.935Z,57.91
2022-10-22T22:14:45.419Z,57.93
2022-10-22T22:17:12.235Z,58.07
2022-10-22T22:19:38.946Z,57.72
2022-10-22T22:22:05.530Z,57.51
2022-10-22T22:24:32.104Z,57.77
2022-10-22T22:26:58.583Z,57.56
2022-10-22T22:29:25.184Z,57.77
2022-10-22T22:31:51.653Z,57.76
2022-10-22T22:34:18.138Z,57.45
2022-10-22T22:36:46.207Z,57.56
2022-10-22T22:39:15.050Z,57.88
2022-10-22T22:41:42.555Z,57.54
2022-10-22T22:44:09.122Z,57.65
2022-10-22T22:46:35.747Z,57.62
2022-10-22T22:49:02.264Z,57.69
2022-10-22T22:51:28.739Z,57.72
2022-10-22T22:53:57.747Z,58.32
2022-10-22T22:56:25.723Z,57.96
2022-10-22T22:58:52.518Z,58.22
2022-10-22T23:01:32.631Z,58.26
2022-10-22T23:04:01.374Z,58.46
2022-10-22T23:06:31.178Z,58.70
2022-10-22T23:08:57.814Z,58.37
2022-10-22T23:11:25.655Z,58.85
2022-10-22T23:14:01.582Z,58.67
2022-10-22T23:16:30.889Z,58.49
2022-10-22T23:18:58.471Z,58.77
2022-10-22T23:21:27.515Z,58.50
2022-10-22T23:23:56.504Z,58.69
2022-10-22T23:26:26.811Z,58.36
2022-10-22T23:28:53.456Z,58.44
2022-10-22T23:31:21.660Z,58.79
2022-10-22T23:33:48.723Z,59.83
2022-10-22T23:36:15.458Z,59.38
2022-10-22T23:38:42.218Z,61.07
2022-10-22T23:41:08.714Z,61.09
2022-10-22T23:43:36.189Z,60.12
2022-10-22T23:46:04.117Z,60.03
2022-10-22T23:48:30.643Z,59.46
2022-10-22T23:50:57.107Z,59.32
2022-10-22T23:53:23.705Z,59.15
2022-10-22T23:55:50.203Z,58.76
2022-10-22T23:58:17.250Z,58.86
